logo
Search for airport 
image banner adimage banner adimage banner ad
image banner ad

YTLBC - Toolebuc Station

Located in Warburton, Australia

ICAO - , IATA -

Data provided by Airmate  

General information

Coordinates: S22°11'3" E140°51'57"
Elevation is 760 feet MSL.
Magnetic variation is 6° East
View others Airports in Queensland

Operational data

Special qualification required
Current time UTC:
Current local time:
Weather at : - ( 0 km )
METAR: KAFP 171254Z AUTO 16003KT 10SM OVC050 25/18 A3023 RMK AO2 T02470182
View NOTAMs / SUP AIP / TFR affecting this airport [VIEW]
Communications frequencies: [VIEW]

Runways:

RWY identifierQFULength (ft)Width (ft)SurfaceLDA (ft)
18188°00UNK
11117°00UNK
29297°00UNK
3600UNK

Airport contact information

Address: Warburton Australia

Satellite view of YTLBC